Time;durP1;ratioP1;P1;durP2;ratioP2;P2;SDS_P1;SDS_P2;PMS_P1;PMS_P2;Temp;Humidity;BMP_temperature;BMP_pressure;BME280_temperature;BME280_humidity;BME280_pressure;Samples;Min_cycle;Max_cycle;Signal;HPM_P1;HPM_P2
2020/12/11 00:01:40;;;;;;;;;;;21.60;52.80;;;;;;4930268;29;19911;-78
2020/12/11 00:04:07;;;;;;;;;;;21.70;51.50;;;;;;4933404;29;19911;-80
2020/12/11 00:06:34;;;;;;;;;;;21.80;51.40;;;;;;4904670;29;19919;-76
2020/12/11 00:09:00;;;;;;;;;;;21.70;52.50;;;;;;4925432;29;19919;-82
2020/12/11 00:11:28;;;;;;;;;;;21.60;52.40;;;;;;4926719;29;19918;-78
2020/12/11 00:13:55;;;;;;;;;;;21.70;54.50;;;;;;4902645;29;19918;-81
2020/12/11 00:16:22;;;;;;;;;;;21.80;55.10;;;;;;4922148;29;19982;-79
2020/12/11 00:18:49;;;;;;;;;;;21.80;53.90;;;;;;4931956;29;19914;-79
2020/12/11 00:21:16;;;;;;;;;;;21.80;54.00;;;;;;4921940;29;19907;-81
2020/12/11 00:23:42;;;;;;;;;;;21.90;52.80;;;;;;4913018;29;19990;-80
2020/12/11 00:26:09;;;;;;;;;;;22.00;52.40;;;;;;4920023;29;20313;-82
2020/12/11 00:28:36;;;;;;;;;;;22.10;51.90;;;;;;4935362;29;20374;-79
2020/12/11 00:31:03;;;;;;;;;;;22.40;50.60;;;;;;4922227;29;20366;-82
2020/12/11 00:33:30;;;;;;;;;;;22.50;52.00;;;;;;4932796;29;19917;-80
2020/12/11 00:36:00;;;;;;;;;;;22.30;53.60;;;;;;4938812;29;19913;-81
2020/12/11 00:38:29;;;;;;;;;;;22.20;53.80;;;;;;4921379;29;19919;-80
2020/12/11 00:40:58;;;;;;;;;;;22.80;53.70;;;;;;4899864;29;20306;-77
2020/12/11 00:43:27;;;;;;;;;;;23.00;52.50;;;;;;4913957;29;20001;-81
2020/12/11 00:45:54;;;;;;;;;;;23.30;50.60;;;;;;4920560;29;19926;-81
2020/12/11 00:48:20;;;;;;;;;;;23.40;50.50;;;;;;4933662;29;19982;-81
2020/12/11 00:50:48;;;;;;;;;;;23.40;50.20;;;;;;4923210;29;20350;-80
2020/12/11 00:53:15;;;;;;;;;;;23.60;49.60;;;;;;4919447;29;20050;-80
2020/12/11 00:55:49;;;;;;;;;;;23.90;50.00;;;;;;4920078;29;20358;-78
2020/12/11 00:58:19;;;;;;;;;;;23.90;49.90;;;;;;4914738;29;19953;-78
2020/12/11 01:00:46;;;;;;;;;;;23.40;50.80;;;;;;4925375;29;20080;-80
2020/12/11 01:03:13;;;;;;;;;;;23.30;50.90;;;;;;4927869;29;19918;-79
2020/12/11 01:05:40;;;;;;;;;;;23.50;48.20;;;;;;4909904;29;20372;-79
2020/12/11 01:08:06;;;;;;;;;;;23.70;47.70;;;;;;4920346;29;20058;-78
2020/12/11 01:10:34;;;;;;;;;;;23.70;48.20;;;;;;4923656;29;19922;-83
2020/12/11 01:13:03;;;;;;;;;;;23.50;48.00;;;;;;4938271;29;19907;-82
2020/12/11 01:15:29;;;;;;;;;;;23.40;48.70;;;;;;4937829;29;19914;-81
2020/12/11 01:17:56;;;;;;;;;;;23.20;49.40;;;;;;4923837;29;19914;-81
2020/12/11 01:20:23;;;;;;;;;;;23.10;48.50;;;;;;4918743;29;19907;-81
2020/12/11 01:22:50;;;;;;;;;;;23.10;48.40;;;;;;4918605;29;21477;-82
2020/12/11 01:25:19;;;;;;;;;;;23.20;48.60;;;;;;4919262;29;19915;-82
2020/12/11 01:27:45;;;;;;;;;;;23.20;48.10;;;;;;4919167;29;19914;-82
2020/12/11 01:30:12;;;;;;;;;;;23.70;48.40;;;;;;4918115;29;19919;-79
2020/12/11 01:32:39;;;;;;;;;;;23.80;48.10;;;;;;4918642;29;19907;-78
2020/12/11 01:35:05;;;;;;;;;;;23.80;47.20;;;;;;4918877;29;20349;-82
2020/12/11 01:37:33;;;;;;;;;;;24.10;47.10;;;;;;4930041;29;19918;-81
2020/12/11 01:40:00;;;;;;;;;;;24.20;47.60;;;;;;4937381;29;19993;-77
2020/12/11 01:42:27;;;;;;;;;;;23.70;48.90;;;;;;4918418;29;19922;-80
2020/12/11 01:44:55;;;;;;;;;;;23.40;48.60;;;;;;4914173;29;20349;-82
2020/12/11 01:47:24;;;;;;;;;;;23.40;49.70;;;;;;4921394;29;20378;-82
2020/12/11 01:49:52;;;;;;;;;;;23.20;49.60;;;;;;4926791;29;20006;-81
2020/12/11 01:52:19;;;;;;;;;;;23.00;50.80;;;;;;4908931;29;19914;-81
2020/12/11 01:54:47;;;;;;;;;;;22.90;51.00;;;;;;4934450;29;19930;-74
2020/12/11 01:57:21;;;;;;;;;;;23.00;50.20;;;;;;4924322;29;20371;-80
2020/12/11 01:59:51;;;;;;;;;;;23.10;49.70;;;;;;4917932;29;19925;-81
2020/12/11 02:02:19;;;;;;;;;;;23.20;48.80;;;;;;4924728;29;20477;-78
2020/12/11 02:04:45;;;;;;;;;;;23.10;49.40;;;;;;4918754;29;19958;-77
2020/12/11 02:07:12;;;;;;;;;;;23.10;49.70;;;;;;4920514;29;19918;-77
2020/12/11 02:09:39;;;;;;;;;;;23.20;49.00;;;;;;4946305;29;19907;-76
2020/12/11 02:12:06;;;;;;;;;;;22.90;50.30;;;;;;4937009;29;19945;-78
2020/12/11 02:14:33;;;;;;;;;;;22.70;50.40;;;;;;4916307;29;20345;-80
2020/12/11 02:17:00;;;;;;;;;;;22.70;50.60;;;;;;4924831;29;19950;-81
2020/12/11 02:19:32;;;;;;;;;;;22.50;50.50;;;;;;4917141;29;19978;-80
2020/12/11 02:22:06;;;;;;;;;;;22.20;50.70;;;;;;4920430;29;19965;-77
2020/12/11 02:24:34;;;;;;;;;;;22.30;51.80;;;;;;4929378;29;19925;-82
2020/12/11 02:27:04;;;;;;;;;;;22.40;51.60;;;;;;4934597;29;19910;-81
2020/12/11 02:29:31;;;;;;;;;;;22.50;51.50;;;;;;4936597;29;19914;-82
2020/12/11 02:32:03;;;;;;;;;;;22.50;51.30;;;;;;4925318;29;19957;-76
2020/12/11 02:34:32;;;;;;;;;;;22.50;50.70;;;;;;4926436;29;19918;-80
2020/12/11 02:37:04;;;;;;;;;;;22.40;50.70;;;;;;4923292;29;19922;-82
2020/12/11 02:39:31;;;;;;;;;;;22.40;51.10;;;;;;4916239;29;19983;-82
2020/12/11 02:41:57;;;;;;;;;;;21.90;50.90;;;;;;4924991;29;19910;-80
2020/12/11 02:44:24;;;;;;;;;;;21.90;52.10;;;;;;4936186;29;19913;-82
2020/12/11 02:46:53;;;;;;;;;;;21.60;51.90;;;;;;4936058;29;19929;-81
2020/12/11 02:49:20;;;;;;;;;;;21.70;52.80;;;;;;4924928;29;19911;-81
2020/12/11 02:51:48;;;;;;;;;;;21.80;51.70;;;;;;4919997;29;19929;-81
2020/12/11 02:54:14;;;;;;;;;;;21.80;51.90;;;;;;4922305;29;20339;-78
2020/12/11 02:56:41;;;;;;;;;;;21.90;51.70;;;;;;4918729;29;20094;-81
2020/12/11 02:59:11;;;;;;;;;;;21.90;51.30;;;;;;4924481;29;19922;-81
2020/12/11 03:01:37;;;;;;;;;;;21.80;51.50;;;;;;4932864;29;19911;-81
2020/12/11 03:04:04;;;;;;;;;;;21.70;52.10;;;;;;4930209;29;19910;-81
2020/12/11 03:06:32;;;;;;;;;;;21.80;52.40;;;;;;4921241;29;19915;-83
2020/12/11 03:08:59;;;;;;;;;;;21.80;51.70;;;;;;4933716;29;19899;-77
2020/12/11 03:11:26;;;;;;;;;;;21.70;52.40;;;;;;4916183;29;19954;-79
2020/12/11 03:13:53;;;;;;;;;;;21.70;52.20;;;;;;4923849;29;20366;-75
2020/12/11 03:16:20;;;;;;;;;;;21.60;51.50;;;;;;4933955;29;19946;-77
2020/12/11 03:18:47;;;;;;;;;;;21.60;51.50;;;;;;4936286;29;19915;-77
2020/12/11 03:21:15;;;;;;;;;;;21.50;51.90;;;;;;4921852;29;19997;-74
2020/12/11 03:23:43;;;;;;;;;;;21.50;51.60;;;;;;4901481;29;19935;-75
2020/12/11 03:26:10;;;;;;;;;;;21.50;52.10;;;;;;4916153;29;19907;-76
2020/12/11 03:28:36;;;;;;;;;;;21.60;52.40;;;;;;4916371;29;20026;-81
2020/12/11 03:31:03;;;;;;;;;;;21.60;52.00;;;;;;4927230;29;19910;-80
2020/12/11 03:33:30;;;;;;;;;;;21.50;52.30;;;;;;4910081;29;20358;-81
2020/12/11 03:35:59;;;;;;;;;;;21.20;52.70;;;;;;4915761;29;19939;-81
2020/12/11 03:38:25;;;;;;;;;;;21.00;53.30;;;;;;4923902;29;19980;-82
2020/12/11 03:40:52;;;;;;;;;;;21.00;53.80;;;;;;4921315;29;19918;-80
2020/12/11 03:43:19;;;;;;;;;;;21.10;52.60;;;;;;4921972;29;19911;-81
2020/12/11 03:45:45;;;;;;;;;;;21.20;52.00;;;;;;4906868;29;19911;-79
2020/12/11 03:48:12;;;;;;;;;;;21.20;52.30;;;;;;4920647;29;19915;-79
2020/12/11 03:50:39;;;;;;;;;;;21.20;52.70;;;;;;4926915;29;19911;-82
2020/12/11 03:53:05;;;;;;;;;;;21.20;53.20;;;;;;4927604;29;19966;-81
2020/12/11 03:55:32;;;;;;;;;;;21.30;53.20;;;;;;4933742;29;20054;-78
2020/12/11 03:57:59;;;;;;;;;;;21.20;53.70;;;;;;4910133;29;20256;-82
2020/12/11 04:00:25;;;;;;;;;;;21.10;53.20;;;;;;4904407;29;19934;-82
2020/12/11 04:02:52;;;;;;;;;;;21.10;53.30;;;;;;4922752;29;20462;-82
2020/12/11 04:05:20;;;;;;;;;;;21.10;53.60;;;;;;4926613;29;19926;-82
2020/12/11 04:07:47;;;;;;;;;;;21.10;54.00;;;;;;4903205;29;20006;-82
2020/12/11 04:10:16;;;;;;;;;;;21.10;53.90;;;;;;4920807;29;19958;-81
2020/12/11 04:12:43;;;;;;;;;;;21.00;54.70;;;;;;4934371;29;19915;-80
2020/12/11 04:15:10;;;;;;;;;;;21.20;54.70;;;;;;4930019;29;19911;-79
2020/12/11 04:17:36;;;;;;;;;;;21.20;54.60;;;;;;4950530;28;19945;-78
2020/12/11 04:20:05;;;;;;;;;;;21.20;54.40;;;;;;4928547;29;20259;-80
2020/12/11 04:22:32;;;;;;;;;;;21.20;54.80;;;;;;4925343;29;20274;-79
2020/12/11 04:24:59;;;;;;;;;;;21.20;55.30;;;;;;4936832;29;20413;-81
2020/12/11 04:27:25;;;;;;;;;;;21.00;55.60;;;;;;4938547;29;19915;-78
2020/12/11 04:29:54;;;;;;;;;;;20.90;56.30;;;;;;4925246;29;19911;-78
2020/12/11 04:32:21;;;;;;;;;;;20.80;56.90;;;;;;4938794;29;19959;-82
2020/12/11 04:34:48;;;;;;;;;;;20.90;56.70;;;;;;4921035;29;19907;-81
2020/12/11 04:37:15;;;;;;;;;;;20.90;56.60;;;;;;4919830;29;19973;-81
2020/12/11 04:39:42;;;;;;;;;;;20.80;57.50;;;;;;4903204;29;20425;-80
2020/12/11 04:42:11;;;;;;;;;;;20.80;56.40;;;;;;4927286;29;20005;-78
2020/12/11 04:44:38;;;;;;;;;;;20.90;56.30;;;;;;4923755;29;19946;-81
2020/12/11 04:47:07;;;;;;;;;;;20.90;55.80;;;;;;4931864;29;19982;-78
2020/12/11 04:49:36;;;;;;;;;;;20.70;55.90;;;;;;4909490;29;20281;-83
2020/12/11 04:52:08;;;;;;;;;;;20.70;56.90;;;;;;4927699;29;19918;-82
2020/12/11 04:54:38;;;;;;;;;;;20.80;56.70;;;;;;4909691;29;19915;-80
2020/12/11 04:57:08;;;;;;;;;;;20.80;56.30;;;;;;4919127;29;19967;-82
2020/12/11 04:59:35;;;;;;;;;;;20.80;56.60;;;;;;4902692;29;20438;-79
2020/12/11 05:02:06;;;;;;;;;;;20.90;56.40;;;;;;4927369;29;19994;-80
2020/12/11 05:04:35;;;;;;;;;;;20.70;56.00;;;;;;4933040;29;19911;-82
2020/12/11 05:07:04;;;;;;;;;;;20.70;56.70;;;;;;4938601;29;19938;-82
2020/12/11 05:09:32;;;;;;;;;;;20.70;56.00;;;;;;4928556;29;19955;-82
2020/12/11 05:11:59;;;;;;;;;;;20.70;56.30;;;;;;4937217;29;19910;-83
2020/12/11 05:14:27;;;;;;;;;;;20.60;56.80;;;;;;4917190;29;20355;-82
2020/12/11 05:17:04;;;;;;;;;;;20.70;56.90;;;;;;4926663;29;19942;-76
2020/12/11 05:19:31;;;;;;;;;;;20.70;55.90;;;;;;4922660;29;19939;-83
2020/12/11 05:22:11;;;;;;;;;;;20.70;56.00;;;;;;4924106;29;19910;-83
2020/12/11 05:24:44;;;;;;;;;;;20.70;55.50;;;;;;4928552;29;19906;-82
2020/12/11 05:27:29;;;;;;;;;;;20.70;55.70;;;;;;4920663;29;19911;-82
2020/12/11 05:29:58;;;;;;;;;;;20.70;56.20;;;;;;4931715;29;19913;-78
2020/12/11 05:32:41;;;;;;;;;;;20.70;57.30;;;;;;4924941;29;19918;-82
2020/12/11 05:35:19;;;;;;;;;;;20.70;57.30;;;;;;4918847;29;19907;-83
2020/12/11 05:37:46;;;;;;;;;;;20.60;57.10;;;;;;4922230;29;20250;-80
2020/12/11 05:40:17;;;;;;;;;;;20.60;57.60;;;;;;4922839;29;19919;-82
2020/12/11 05:42:43;;;;;;;;;;;20.50;57.70;;;;;;4926950;29;19911;-83
2020/12/11 05:45:19;;;;;;;;;;;20.50;58.20;;;;;;4907553;29;20366;-82
2020/12/11 05:47:45;;;;;;;;;;;20.60;57.10;;;;;;4925970;29;19918;-83
2020/12/11 05:50:19;;;;;;;;;;;20.50;56.60;;;;;;4928346;29;19911;-81
2020/12/11 05:52:47;;;;;;;;;;;20.50;57.00;;;;;;4916159;29;19977;-79
2020/12/11 05:55:18;;;;;;;;;;;20.60;57.10;;;;;;4917219;29;19918;-82
2020/12/11 05:57:46;;;;;;;;;;;20.60;56.70;;;;;;4924319;29;20477;-80
2020/12/11 06:00:12;;;;;;;;;;;20.70;57.10;;;;;;4910523;29;19923;-78
2020/12/11 06:02:39;;;;;;;;;;;20.70;56.30;;;;;;4915712;29;20322;-78
2020/12/11 06:05:06;;;;;;;;;;;20.50;56.80;;;;;;4915762;29;19911;-79
2020/12/11 06:07:34;;;;;;;;;;;20.40;57.70;;;;;;4916825;29;19911;-79
2020/12/11 06:10:04;;;;;;;;;;;20.50;57.70;;;;;;4920807;29;19910;-79
2020/12/11 06:12:32;;;;;;;;;;;20.50;57.80;;;;;;4934614;29;20342;-79
2020/12/11 06:15:06;;;;;;;;;;;20.60;58.20;;;;;;4916665;29;19910;-80
2020/12/11 06:17:34;;;;;;;;;;;20.50;58.10;;;;;;4910921;29;19918;-83
2020/12/11 06:20:02;;;;;;;;;;;20.30;59.60;;;;;;4916780;29;19919;-81
2020/12/11 06:22:29;;;;;;;;;;;20.20;59.80;;;;;;4915303;29;19907;-80
2020/12/11 06:24:55;;;;;;;;;;;20.10;60.20;;;;;;4932348;29;20053;-78
2020/12/11 06:27:31;;;;;;;;;;;20.10;59.90;;;;;;4932703;29;19922;-79
2020/12/11 06:29:58;;;;;;;;;;;20.10;59.80;;;;;;4923577;29;19911;-77
2020/12/11 06:32:32;;;;;;;;;;;20.00;60.50;;;;;;4917004;29;19914;-82
2020/12/11 06:35:10;;;;;;;;;;;20.10;60.50;;;;;;4915643;29;19915;-78
2020/12/11 06:37:37;;;;;;;;;;;20.20;59.70;;;;;;4915583;29;19914;-80
2020/12/11 06:40:04;;;;;;;;;;;20.10;60.10;;;;;;4915215;29;19960;-79
2020/12/11 06:42:39;;;;;;;;;;;20.10;60.50;;;;;;4925194;29;20141;-78
2020/12/11 06:45:18;;;;;;;;;;;20.10;60.20;;;;;;4934287;29;19997;-82
2020/12/11 06:47:51;;;;;;;;;;;20.00;60.80;;;;;;4931869;29;19910;-82
2020/12/11 06:50:18;;;;;;;;;;;20.10;60.20;;;;;;4925564;29;20335;-81
2020/12/11 06:52:45;;;;;;;;;;;20.00;60.40;;;;;;4915170;29;19919;-81
2020/12/11 06:55:12;;;;;;;;;;;20.10;60.70;;;;;;4900049;29;19974;-81
2020/12/11 06:57:40;;;;;;;;;;;20.10;60.70;;;;;;4919094;29;20388;-81
2020/12/11 07:00:25;;;;;;;;;;;20.10;60.10;;;;;;4916732;29;19927;-81
2020/12/11 07:03:10;;;;;;;;;;;20.00;60.10;;;;;;4913373;29;19919;-79
2020/12/11 07:05:36;;;;;;;;;;;20.00;60.30;;;;;;4917099;29;19961;-77
2020/12/11 07:08:10;;;;;;;;;;;20.10;60.10;;;;;;4931560;29;19918;-76
2020/12/11 07:10:37;;;;;;;;;;;20.20;60.20;;;;;;4913475;29;19927;-76
2020/12/11 07:13:09;;;;;;;;;;;20.20;59.80;;;;;;4925195;29;20223;-78
2020/12/11 07:15:35;;;;;;;;;;;20.20;59.80;;;;;;4914270;29;20372;-81
2020/12/11 07:18:03;;;;;;;;;;;20.20;59.50;;;;;;4910479;29;20010;-77
2020/12/11 07:20:32;;;;;;;;;;;20.20;59.60;;;;;;4876693;29;20293;-80
2020/12/11 07:23:02;;;;;;;;;;;20.20;60.00;;;;;;4897327;29;20516;-78
2020/12/11 07:25:29;;;;;;;;;;;20.20;60.20;;;;;;4913317;29;19911;-77
2020/12/11 07:28:00;;;;;;;;;;;20.20;59.90;;;;;;4914931;29;19915;-78
2020/12/11 07:30:26;;;;;;;;;;;20.10;60.40;;;;;;4901917;29;19915;-80
2020/12/11 07:32:54;;;;;;;;;;;20.10;60.70;;;;;;4907054;29;19912;-79
2020/12/11 07:35:21;;;;;;;;;;;20.10;61.00;;;;;;4913077;29;19978;-79
2020/12/11 07:37:56;;;;;;;;;;;20.10;61.30;;;;;;4906208;29;19907;-78
2020/12/11 07:40:24;;;;;;;;;;;20.10;62.30;;;;;;4897419;29;20071;-81
2020/12/11 07:42:52;;;;;;;;;;;20.00;63.80;;;;;;4903085;29;19907;-81
2020/12/11 07:45:26;;;;;;;;;;;20.00;63.50;;;;;;4910588;29;19919;-79
2020/12/11 07:47:56;;;;;;;;;;;19.90;64.70;;;;;;4906624;29;19919;-79
2020/12/11 07:50:28;;;;;;;;;;;19.70;65.00;;;;;;4902543;29;20013;-80
2020/12/11 07:52:55;;;;;;;;;;;19.80;65.20;;;;;;4902579;29;19922;-78
2020/12/11 07:55:23;;;;;;;;;;;19.80;64.90;;;;;;4915617;29;19977;-79
2020/12/11 07:57:54;;;;;;;;;;;19.80;65.20;;;;;;4912161;29;19926;-78
2020/12/11 08:00:27;;;;;;;;;;;19.80;65.20;;;;;;4912397;29;19970;-82
2020/12/11 08:03:08;;;;;;;;;;;19.70;64.90;;;;;;4912431;29;19966;-79
2020/12/11 08:05:39;;;;;;;;;;;19.70;65.00;;;;;;4918263;29;19958;-81
2020/12/11 08:08:07;;;;;;;;;;;19.70;64.40;;;;;;4918933;29;20560;-81
2020/12/11 08:10:41;;;;;;;;;;;19.60;64.50;;;;;;4918489;29;19915;-83
2020/12/11 08:13:09;;;;;;;;;;;19.60;64.20;;;;;;4918971;29;19917;-83
2020/12/11 08:15:37;;;;;;;;;;;19.50;64.00;;;;;;4913286;29;19912;-81
2020/12/11 08:18:06;;;;;;;;;;;19.50;63.30;;;;;;4887649;29;20359;-81
2020/12/11 08:20:48;;;;;;;;;;;19.40;63.80;;;;;;4909855;29;19926;-78
2020/12/11 08:23:37;;;;;;;;;;;19.40;64.30;;;;;;4904197;29;19963;-80
2020/12/11 08:26:08;;;;;;;;;;;19.40;64.80;;;;;;4917887;29;19957;-81
2020/12/11 08:28:35;;;;;;;;;;;19.30;65.50;;;;;;4910341;29;20025;-78
2020/12/11 08:31:20;;;;;;;;;;;19.30;65.70;;;;;;4917131;29;19961;-79
2020/12/11 08:33:51;;;;;;;;;;;19.20;66.70;;;;;;4906377;29;20386;-80
2020/12/11 08:36:22;;;;;;;;;;;19.30;67.00;;;;;;4870568;29;20290;-80
2020/12/11 08:39:04;;;;;;;;;;;19.20;66.90;;;;;;4903211;29;19919;-78
2020/12/11 08:41:31;;;;;;;;;;;19.20;66.50;;;;;;4906284;29;19916;-79
2020/12/11 08:44:53;;;;;;;;;;;19.30;65.10;;;;;;4911525;29;19918;-77
2020/12/11 08:47:27;;;;;;;;;;;19.40;66.20;;;;;;4901689;29;19911;-78
2020/12/11 08:50:06;;;;;;;;;;;19.30;69.40;;;;;;4910193;29;20064;-77
2020/12/11 08:52:33;;;;;;;;;;;19.00;70.40;;;;;;4918930;29;19967;-80
2020/12/11 08:55:00;;;;;;;;;;;18.80;69.00;;;;;;4900776;29;19963;-81
2020/12/11 08:57:30;;;;;;;;;;;18.70;70.00;;;;;;4887905;29;21235;-80
2020/12/11 08:59:58;;;;;;;;;;;18.70;70.20;;;;;;4906887;29;19927;-77
2020/12/11 09:02:26;;;;;;;;;;;18.70;69.10;;;;;;4916589;29;19958;-78
2020/12/11 09:04:53;;;;;;;;;;;18.80;69.00;;;;;;4917902;29;19965;-77
2020/12/11 09:07:20;;;;;;;;;;;18.80;67.90;;;;;;4917631;29;19965;-77
2020/12/11 09:09:50;;;;;;;;;;;18.80;67.80;;;;;;4917781;29;19911;-81
2020/12/11 09:12:17;;;;;;;;;;;18.80;67.80;;;;;;4917271;29;20051;-75
2020/12/11 09:14:44;;;;;;;;;;;18.80;67.80;;;;;;4931862;29;19911;-80
2020/12/11 09:17:11;;;;;;;;;;;18.80;67.70;;;;;;4908552;29;19955;-81
2020/12/11 09:19:39;;;;;;;;;;;18.80;67.80;;;;;;4915974;29;19919;-81
2020/12/11 09:22:05;;;;;;;;;;;18.80;67.90;;;;;;4924157;29;19913;-79
2020/12/11 09:24:32;;;;;;;;;;;18.80;68.10;;;;;;4924492;29;19919;-79
2020/12/11 09:27:06;;;;;;;;;;;18.90;67.50;;;;;;4936133;29;19938;-78
2020/12/11 09:29:40;;;;;;;;;;;18.90;68.70;;;;;;4927464;29;20309;-82
2020/12/11 09:32:08;;;;;;;;;;;18.80;69.30;;;;;;4933871;29;20283;-81
2020/12/11 09:34:34;;;;;;;;;;;18.80;70.00;;;;;;4936751;29;19911;-81
2020/12/11 09:37:04;;;;;;;;;;;18.60;70.80;;;;;;4937035;29;19916;-79
2020/12/11 09:39:31;;;;;;;;;;;18.50;71.50;;;;;;4920934;29;19911;-82
2020/12/11 09:45:17;;;;;;;;;;;18.40;71.00;;;;;;4938124;29;19911;-78
2020/12/11 09:47:44;;;;;;;;;;;18.50;71.30;;;;;;4935957;29;19907;-81
2020/12/11 09:50:33;;;;;;;;;;;18.60;71.20;;;;;;4935193;29;19907;-79
2020/12/11 09:55:46;;;;;;;;;;;18.70;74.90;;;;;;4933821;29;20005;-79
2020/12/11 09:58:13;;;;;;;;;;;18.40;77.50;;;;;;4934280;29;19926;-81
2020/12/11 10:00:43;;;;;;;;;;;18.10;77.80;;;;;;4901432;29;19923;-83
2020/12/11 10:03:13;;;;;;;;;;;18.00;78.80;;;;;;4916872;29;22024;-79
2020/12/11 10:05:41;;;;;;;;;;;17.90;76.80;;;;;;4915666;29;19915;-76
2020/12/11 10:08:11;;;;;;;;;;;17.90;75.60;;;;;;4914493;29;19919;-79
2020/12/11 10:10:39;;;;;;;;;;;18.10;74.90;;;;;;4898213;29;19967;-77
2020/12/11 10:13:06;;;;;;;;;;;18.10;75.40;;;;;;4932353;29;20282;-78
2020/12/11 10:15:33;;;;;;;;;;;18.20;76.10;;;;;;4919402;29;19926;-76
2020/12/11 10:18:03;;;;;;;;;;;18.20;74.80;;;;;;4908396;29;20009;-78
2020/12/11 10:20:30;;;;;;;;;;;18.30;72.40;;;;;;4913551;29;19919;-79
2020/12/11 10:22:58;;;;;;;;;;;18.30;72.70;;;;;;4914211;29;19914;-77
2020/12/11 10:25:25;;;;;;;;;;;18.30;71.50;;;;;;4913339;29;19922;-76
2020/12/11 10:27:52;;;;;;;;;;;18.30;71.80;;;;;;4899735;29;20009;-76
2020/12/11 10:30:20;;;;;;;;;;;18.40;70.00;;;;;;4894347;29;20011;-78
2020/12/11 10:32:46;;;;;;;;;;;18.40;70.50;;;;;;4911311;29;20286;-77
2020/12/11 10:35:13;;;;;;;;;;;18.50;69.40;;;;;;4913343;29;19918;-77
2020/12/11 10:37:41;;;;;;;;;;;18.50;68.60;;;;;;4909894;29;19919;-78
2020/12/11 10:40:08;;;;;;;;;;;18.50;68.70;;;;;;4913584;29;19919;-78
2020/12/11 10:42:34;;;;;;;;;;;18.60;68.60;;;;;;4913895;29;19934;-77
2020/12/11 10:45:01;;;;;;;;;;;18.60;68.50;;;;;;4913762;29;20330;-76
2020/12/11 10:47:28;;;;;;;;;;;18.60;67.30;;;;;;4913902;29;20322;-77
2020/12/11 10:49:56;;;;;;;;;;;18.60;67.40;;;;;;4913605;29;19917;-78
2020/12/11 10:52:23;;;;;;;;;;;18.60;67.70;;;;;;4913662;29;20006;-77
2020/12/11 10:54:53;;;;;;;;;;;18.60;65.40;;;;;;4913795;29;19907;-78
2020/12/11 10:57:19;;;;;;;;;;;18.60;65.40;;;;;;4911999;29;19921;-78
2020/12/11 10:59:48;;;;;;;;;;;18.70;66.10;;;;;;4913153;29;20362;-78
2020/12/11 11:02:15;;;;;;;;;;;18.70;66.10;;;;;;4913162;29;19939;-79
2020/12/11 11:04:42;;;;;;;;;;;18.80;65.90;;;;;;4912411;29;19919;-78
2020/12/11 11:07:18;;;;;;;;;;;18.90;65.60;;;;;;4915498;29;19934;-78
2020/12/11 11:09:50;;;;;;;;;;;19.00;65.80;;;;;;4921288;29;19918;-76
2020/12/11 11:12:29;;;;;;;;;;;18.90;65.60;;;;;;4913308;29;19950;-77
2020/12/11 11:15:25;;;;;;;;;;;19.00;65.20;;;;;;4913166;29;19943;-76
2020/12/11 11:28:01;;;;;;;;;;;19.00;62.80;;;;;;4912916;29;19922;-77
2020/12/11 11:30:34;;;;;;;;;;;19.00;63.80;;;;;;4909181;29;19966;-77
2020/12/11 11:33:01;;;;;;;;;;;19.00;63.10;;;;;;4904925;29;20358;-77
2020/12/11 11:35:33;;;;;;;;;;;19.10;63.40;;;;;;4913331;29;19939;-77
2020/12/11 11:38:01;;;;;;;;;;;19.10;63.60;;;;;;4912518;29;19915;-76
2020/12/11 11:40:28;;;;;;;;;;;19.10;63.10;;;;;;4896156;29;19919;-76
2020/12/11 11:42:54;;;;;;;;;;;19.00;63.00;;;;;;4913476;29;19919;-77
2020/12/11 11:45:24;;;;;;;;;;;19.00;63.00;;;;;;4913236;29;19926;-75
2020/12/11 11:47:54;;;;;;;;;;;19.00;63.30;;;;;;4912783;29;19915;-80
2020/12/11 11:50:37;;;;;;;;;;;19.00;63.40;;;;;;4912244;29;19916;-76
2020/12/11 11:53:10;;;;;;;;;;;19.00;63.50;;;;;;4913194;29;20354;-78
2020/12/11 11:55:37;;;;;;;;;;;19.10;63.90;;;;;;4915736;29;19935;-76
2020/12/11 11:58:04;;;;;;;;;;;19.00;63.00;;;;;;4907263;29;19926;-76
2020/12/11 12:00:30;;;;;;;;;;;18.90;62.60;;;;;;4915352;29;19946;-80
2020/12/11 12:02:57;;;;;;;;;;;19.00;63.00;;;;;;4914599;29;20366;-76
2020/12/11 12:05:24;;;;;;;;;;;18.90;62.30;;;;;;4914857;29;20263;-77
2020/12/11 12:07:50;;;;;;;;;;;18.90;62.00;;;;;;4914479;29;19911;-76
2020/12/11 12:10:17;;;;;;;;;;;19.00;62.20;;;;;;4914145;29;19990;-78
2020/12/11 12:12:44;;;;;;;;;;;19.00;62.50;;;;;;4913654;29;19997;-78
2020/12/11 12:15:19;;;;;;;;;;;19.00;65.80;;;;;;4913021;29;19922;-77
2020/12/11 12:17:56;;;;;;;;;;;18.60;72.20;;;;;;4913624;29;19911;-77
2020/12/11 12:20:32;;;;;;;;;;;18.10;75.30;;;;;;4914764;29;19926;-76
2020/12/11 12:30:59;;;;;;;;;;;17.80;72.80;;;;;;4913943;29;19907;-77
2020/12/11 12:42:19;;;;;;;;;;;18.10;68.30;;;;;;4915411;29;19911;-77
2020/12/11 12:43:54;;;;;;;;;;;18.10;68.30;;;;;;4902759;29;19918;-76
2020/12/11 12:46:21;;;;;;;;;;;18.30;67.70;;;;;;4916131;29;19911;-75
2020/12/11 12:48:50;;;;;;;;;;;18.30;66.70;;;;;;4916098;29;19911;-78
2020/12/11 12:51:17;;;;;;;;;;;18.40;67.20;;;;;;4914932;29;20001;-78
2020/12/11 12:53:44;;;;;;;;;;;18.50;66.00;;;;;;4913369;29;20343;-78
2020/12/11 12:59:01;;;;;;;;;;;18.40;65.50;;;;;;4915867;29;19934;-78
2020/12/11 13:01:40;;;;;;;;;;;18.40;65.50;;;;;;4915750;29;19986;-79
2020/12/11 13:04:19;;;;;;;;;;;18.50;64.50;;;;;;4915004;29;19962;-76
2020/12/11 13:06:47;;;;;;;;;;;18.50;64.80;;;;;;4913109;29;20318;-76
2020/12/11 13:09:14;;;;;;;;;;;18.50;64.20;;;;;;4915599;29;19971;-76
2020/12/11 13:11:41;;;;;;;;;;;18.50;63.90;;;;;;4899212;29;20406;-75
2020/12/11 13:14:08;;;;;;;;;;;18.50;63.40;;;;;;4915680;29;19911;-77
2020/12/11 13:16:34;;;;;;;;;;;18.50;64.00;;;;;;4916175;29;19911;-77
2020/12/11 13:19:01;;;;;;;;;;;18.50;63.60;;;;;;4915010;29;19919;-76
2020/12/11 13:21:33;;;;;;;;;;;18.60;63.80;;;;;;4914526;29;19933;-77
2020/12/11 13:26:52;;;;;;;;;;;18.70;63.80;;;;;;4897024;29;19930;-77
2020/12/11 13:29:19;;;;;;;;;;;18.70;63.70;;;;;;4912371;29;19929;-76
2020/12/11 13:31:46;;;;;;;;;;;18.70;62.60;;;;;;4899996;29;20445;-75
2020/12/11 13:34:13;;;;;;;;;;;18.70;62.90;;;;;;4924484;29;20010;-76
2020/12/11 13:36:44;;;;;;;;;;;18.70;62.30;;;;;;4916082;29;20564;-76
2020/12/11 13:39:15;;;;;;;;;;;18.70;62.30;;;;;;4910583;29;19992;-76
2020/12/11 13:41:42;;;;;;;;;;;18.70;62.30;;;;;;4915491;29;19934;-76
2020/12/11 13:44:08;;;;;;;;;;;18.70;62.30;;;;;;4915269;29;19911;-75
2020/12/11 13:46:35;;;;;;;;;;;18.70;62.30;;;;;;4932610;29;19911;-77
2020/12/11 13:49:02;;;;;;;;;;;18.60;61.80;;;;;;4921491;29;19917;-75
2020/12/11 13:51:28;;;;;;;;;;;18.60;61.90;;;;;;4916133;29;20370;-76
2020/12/11 13:53:55;;;;;;;;;;;18.60;61.80;;;;;;4915632;29;19911;-77
2020/12/11 13:56:21;;;;;;;;;;;18.60;61.70;;;;;;4916558;29;19941;-76
2020/12/11 13:58:48;;;;;;;;;;;18.60;61.80;;;;;;4926972;29;20329;-77
2020/12/11 14:01:16;;;;;;;;;;;18.60;61.80;;;;;;4935070;29;20469;-76
2020/12/11 14:03:43;;;;;;;;;;;18.60;61.60;;;;;;4916166;29;19917;-75
2020/12/11 14:06:09;;;;;;;;;;;18.60;61.80;;;;;;4919870;29;19911;-75
2020/12/11 14:08:36;;;;;;;;;;;18.60;62.20;;;;;;4916024;29;19914;-76
2020/12/11 14:11:05;;;;;;;;;;;18.60;62.60;;;;;;4915652;29;19969;-76
2020/12/11 14:13:35;;;;;;;;;;;18.70;63.70;;;;;;4915076;29;20323;-77
2020/12/11 14:16:02;;;;;;;;;;;18.70;63.60;;;;;;4912085;29;19922;-75
2020/12/11 14:23:23;;;;;;;;;;;18.70;65.60;;;;;;4915732;29;19954;-76
2020/12/11 14:25:50;;;;;;;;;;;18.70;66.30;;;;;;4926074;29;19918;-77
2020/12/11 14:28:16;;;;;;;;;;;18.70;66.60;;;;;;4915680;29;20005;-77
2020/12/11 14:30:44;;;;;;;;;;;18.60;67.30;;;;;;4917171;29;19907;-76
2020/12/11 14:33:11;;;;;;;;;;;18.50;65.60;;;;;;4934025;29;19907;-78
2020/12/11 14:35:39;;;;;;;;;;;18.40;66.80;;;;;;4922279;29;20445;-77
2020/12/11 14:38:15;;;;;;;;;;;18.30;67.40;;;;;;4913349;29;19941;-77
2020/12/11 14:40:42;;;;;;;;;;;18.30;67.50;;;;;;4934186;29;20360;-78
2020/12/11 14:43:10;;;;;;;;;;;18.40;66.50;;;;;;4933994;29;19911;-78
2020/12/11 14:45:37;;;;;;;;;;;18.30;69.60;;;;;;4924600;29;19911;-77
2020/12/11 14:48:04;;;;;;;;;;;18.20;74.10;;;;;;4927755;29;19911;-77
2020/12/11 14:50:30;;;;;;;;;;;17.90;74.50;;;;;;4914907;29;19914;-75
2020/12/11 14:52:57;;;;;;;;;;;17.70;75.00;;;;;;4914501;29;20348;-76
2020/12/11 14:55:24;;;;;;;;;;;17.60;76.30;;;;;;4932357;29;20033;-76
2020/12/11 14:57:50;;;;;;;;;;;17.50;77.80;;;;;;4947393;29;19921;-76
2020/12/11 15:00:17;;;;;;;;;;;17.50;75.60;;;;;;4934810;29;20008;-76
2020/12/11 15:02:44;;;;;;;;;;;17.50;78.00;;;;;;4914384;29;19911;-75
2020/12/11 15:05:11;;;;;;;;;;;17.60;74.40;;;;;;4900829;29;19915;-76
2020/12/11 15:07:38;;;;;;;;;;;17.60;73.10;;;;;;4928280;29;19910;-75
2020/12/11 15:10:04;;;;;;;;;;;17.70;72.30;;;;;;4929833;29;19911;-77